x

Port Aransas, Tx (ptat2) Weather Station

7:00am - Sun 14th Feb 2016 All times are CST. -6 hours from GMT.

  • Wind
    14mph, 15mph gusts
  • Sea Temp 65°f
  • Air Temp 65°f
  • Sea Pressure 1018mb
  • Port Aransas, Tx
  • Port Aransas, Tx

More Historic Weather Station data

Upgrade to MSW Pro to gain access to the past 30 days of data for over 8000 Wavebouys and Weather Stations around the globe.

Join Pro

Comparision Forecast

View Surf forecast
   
Sun 02/14 7:00am 14 15 mph 1018mb 65f 65f
6:00am 9 10 mph 1018.5mb 65f 65f
5:00am 14 15 mph 1017.9mb 65f 65f
4:00am 16
mph
1018.2mb 65f 65f
3:00am 14 15 mph 1019mb 65f 65f
2:00am 10 11 mph 1019.9mb 65f 64f
1:00am 11 13 mph 1020.5mb 65f 64f
12:00am 14 15 mph 1021.3mb 65f 64f
Sat 02/13 11:00pm 11 14 mph 1022.2mb 65f 64f
10:00pm 9 11 mph 1022.6mb 65f 64f
9:00pm 11 13 mph 1023.1mb 65f 64f
8:00pm 13 14 mph 1023.4mb 65f 65f
7:00pm 14 15 mph 1023.6mb 65f 65f
6:00pm 10 11 mph 1024mb 66f 64f
5:00pm 9 10 mph 1024.5mb 66f 64f
4:00pm 9
mph
1024.6mb 66f 64f
3:00pm 10 11 mph 1025.3mb 67f 64f
2:00pm 9 10 mph 1026.2mb 66f 64f
1:00pm 10 11 mph 1027.3mb 65f 64f
12:00pm 7 8 mph 1028.1mb 64f 65f
11:00am 6
mph
1028.2mb 64f 65f
10:00am 5 6 mph 1028mb 64f 64f
9:00am 6
mph
1027.6mb 64f 64f
8:00am 6 7 mph 1027.1mb 64f 64f
7:00am 3
mph
1026.7mb 64f 63f
6:00am 1
mph
1026.2mb 64f 62f
5:00am  -  1 mph 1025.6mb 64f 63f
4:00am 5
mph
1025.1mb 64f 63f
3:00am 3 5 mph 1025mb 64f 63f
2:00am 7
mph
1025mb 64f 64f
1:00am 10 14 mph 1025.1mb 64f 65f
12:00am 8
mph
1025.2mb 64f 64f
Fri 02/12 11:00pm 10 11 mph 1025.1mb 64f 64f
10:00pm 14 15 mph 1024.8mb 65f 64f
9:00pm 13 14 mph 1024.8mb 65f 64f
8:00pm 10 11 mph 1024.5mb 65f 64f
7:00pm 11 13 mph 1023.6mb 65f 64f
6:00pm 11 14 mph 1023.3mb 65f 65f
5:00pm 13 14 mph 1023.2mb 65f 65f
4:00pm 13 14 mph 1022.7mb 65f 65f
3:00pm 10 11 mph 1022.9mb 64f 65f
2:00pm 8
mph
1023.2mb 64f 65f
1:00pm 7 8 mph 1024.1mb 63f 65f
12:00pm 7 8 mph 1024.7mb 63f 64f
11:00am 7 8 mph 1024.9mb 62f 64f
10:00am 9
mph
1024.6mb 62f 64f
9:00am 9 10 mph 1023.9mb 61f 63f
8:00am 10
mph
1023.3mb 61f 63f
7:00am 9
mph
1023mb 61f 62f
6:00am 9 10 mph 1022.4mb 61f 62f
5:00am 9 10 mph 1021.9mb 61f 62f
4:00am 10 11 mph 1021.7mb 62f 62f
3:00am 11
mph
1021.5mb 62f 62f
2:00am 10 11 mph 1021.7mb 62f 62f
1:00am 9 10 mph 1022.1mb 62f 62f
12:00am 11 13 mph 1022.5mb 62f 63f
Thu 02/11 11:00pm 16 17 mph 1022.4mb 62f 63f
10:00pm 13 14 mph 1022.7mb 62f 63f
9:00pm 11 13 mph 1022.6mb 62f 63f
8:00pm 16 17 mph 1022.2mb 62f 63f
7:00pm 21 24 mph 1021.3mb 63f 64f
6:00pm 22 24 mph 1021.2mb 63f 64f
5:00pm 21 23 mph 1021.3mb 63f 64f
4:00pm 21 22 mph 1020.8mb 63f 64f
3:00pm 20 22 mph 1021.2mb 62f 64f
2:00pm 14 15 mph 1021.9mb 62f 63f
1:00pm 16 17 mph 1022.6mb 61f 63f
12:00pm 17 20 mph 1023.5mb 61f 63f
11:00am 14 16 mph 1024mb 60f 62f
10:00am 11 13 mph 1024mb 60f 62f
9:00am 11 13 mph 1023.8mb 60f 62f
8:00am 14 15 mph 1023.3mb 60f 62f
7:00am 14 15 mph 1023mb 60f 61f
6:00am 14 15 mph 1022.8mb 60f 61f
5:00am 13 14 mph 1022.6mb 60f 61f
4:00am 16 17 mph 1022.5mb 60f 62f
3:00am 17 20 mph 1022.9mb 60f 62f
2:00am 20 22 mph 1023.4mb 60f 62f
1:00am 22 23 mph 1023.5mb 60f 62f
12:00am 23 24 mph 1024.2mb 61f 62f
Wed 02/10 11:00pm 22 24 mph 1024.6mb 61f 62f
10:00pm 21 23 mph 1025mb 61f 63f
9:00pm 20 21 mph 1025.3mb 61f 62f
8:00pm 17 18 mph 1025.5mb 61f 62f
7:00pm 15 17 mph 1025.7mb 62f 62f
6:00pm 14 15 mph 1026mb 61f 62f
5:00pm 14 15 mph 1026.4mb 62f 62f
4:00pm 13 14 mph 1026.5mb 61f 61f
3:00pm 11 13 mph 1026.9mb 61f 61f